createdAt,value
2023-02-27T00:01:48.806Z,96284.81
2023-02-27T00:04:18.715Z,96276.08
2023-02-27T00:06:48.550Z,96271.43
2023-02-27T00:09:18.428Z,96287.22
2023-02-27T00:11:48.527Z,96292.37
2023-02-27T00:14:20.918Z,96290.19
2023-02-27T00:16:50.824Z,96279.00
2023-02-27T00:19:24.418Z,96262.66
2023-02-27T00:21:54.250Z,96263.75
2023-02-27T00:24:24.197Z,96250.95
2023-02-27T00:26:54.081Z,96249.32
2023-02-27T00:29:23.940Z,96238.98
2023-02-27T00:31:54.004Z,96225.08
2023-02-27T00:34:24.133Z,96218.82
2023-02-27T00:36:54.024Z,96194.33
2023-02-27T00:39:23.944Z,96184.24
2023-02-27T00:41:53.867Z,96174.97
2023-02-27T00:44:27.007Z,96169.00
2023-02-27T00:46:56.836Z,96160.83
2023-02-27T00:49:26.920Z,96145.55
2023-02-27T00:51:56.731Z,96119.44
2023-02-27T00:54:26.673Z,96105.03
2023-02-27T00:56:56.580Z,96090.05
2023-02-27T00:59:26.413Z,96085.14
2023-02-27T01:01:56.278Z,96082.97
2023-02-27T01:04:26.150Z,96072.88
2023-02-27T01:06:57.405Z,96063.66
2023-02-27T01:09:27.241Z,96054.95
2023-02-27T01:11:58.539Z,96051.42
2023-02-27T01:14:28.370Z,96043.80
2023-02-27T01:16:58.913Z,96038.61
2023-02-27T01:19:28.864Z,96031.55
2023-02-27T01:22:00.114Z,96022.03
2023-02-27T01:24:30.158Z,96005.95
2023-02-27T01:27:00.042Z,95998.61
2023-02-27T01:29:29.889Z,95990.17
2023-02-27T01:32:00.042Z,95999.97
2023-02-27T01:34:30.050Z,95988.56
2023-02-27T01:36:59.904Z,96002.45
2023-02-27T01:39:30.079Z,95990.20
2023-02-27T01:41:59.991Z,95994.28
2023-02-27T01:44:30.768Z,95992.92
2023-02-27T01:47:00.804Z,95981.50
2023-02-27T01:49:33.220Z,95976.34
2023-02-27T01:52:06.690Z,95963.81
2023-02-27T01:54:38.833Z,95942.04
2023-02-27T01:57:09.362Z,95921.63
2023-02-27T01:59:41.138Z,95907.49
2023-02-27T02:02:13.745Z,95900.97
2023-02-27T02:04:43.651Z,95903.94
2023-02-27T02:07:16.730Z,95893.61
2023-02-27T02:09:59.752Z,95868.31
2023-02-27T02:12:34.763Z,95848.58
2023-02-27T02:15:05.019Z,95848.58
2023-02-27T02:17:40.936Z,95876.20
2023-02-27T02:20:16.071Z,95874.83
2023-02-27T02:23:18.568Z,95874.83
2023-02-27T02:25:54.185Z,95854.17
2023-02-27T02:28:32.958Z,95843.29
2023-02-27T02:31:27.097Z,95824.80
2023-02-27T02:34:32.399Z,95828.88
2023-02-27T02:37:10.789Z,95834.33
2023-02-27T02:40:10.288Z,95826.72
2023-02-27T02:42:51.339Z,95806.86
2023-02-27T02:45:51.255Z,95801.70
2023-02-27T02:48:26.710Z,95786.73
2023-02-27T02:51:18.671Z,95771.77
2023-02-27T02:53:57.861Z,95764.95
2023-02-27T02:56:30.076Z,95731.89
2023-02-27T02:59:08.846Z,95742.95
2023-02-27T03:01:42.352Z,95717.09
2023-02-27T03:04:30.080Z,95688.25
2023-02-27T03:07:08.409Z,95670.56
2023-02-27T03:09:43.700Z,95638.46
2023-02-27T03:12:14.675Z,95615.38
2023-02-27T03:14:47.218Z,95618.05
2023-02-27T03:17:23.974Z,95614.77
2023-02-27T03:19:56.777Z,95612.86
2023-02-27T03:22:41.298Z,95622.13
2023-02-27T03:25:11.633Z,95599.81
2023-02-27T03:27:49.904Z,95646.38
2023-02-27T03:30:22.521Z,95630.54
2023-02-27T03:33:11.994Z,95618.61
2023-02-27T03:35:54.597Z,95705.69
2023-02-27T03:38:28.560Z,95699.77
2023-02-27T03:41:21.100Z,95695.64
2023-02-27T04:19:59.686Z,96027.38
2023-02-27T04:22:49.745Z,96014.30
2023-02-27T04:25:28.137Z,96018.12
2023-02-27T04:28:09.463Z,95996.11
2023-02-27T04:30:57.419Z,95974.34
2023-02-27T04:34:07.834Z,95990.11
2023-02-27T04:36:47.940Z,96000.75
2023-02-27T04:39:23.727Z,96027.42
2023-02-27T04:41:56.368Z,96011.10
2023-02-27T04:44:26.242Z,95995.85
2023-02-27T04:46:56.436Z,96022.81
2023-02-27T04:49:35.229Z,96035.61
2023-02-27T04:52:13.185Z,96048.66
2023-02-27T04:55:00.890Z,96049.77
2023-02-27T04:57:34.101Z,96052.21
2023-02-27T05:00:29.573Z,96049.23
2023-02-27T05:03:24.000Z,96026.92
2023-02-27T05:06:22.156Z,96036.19
2023-02-27T05:12:18.144Z,95997.30
2023-02-27T05:14:55.038Z,96010.62
2023-02-27T05:17:27.488Z,96009.81
2023-02-27T05:20:08.545Z,96003.56
2023-02-27T05:23:13.219Z,95992.95
2023-02-27T05:25:56.625Z,96021.27
2023-02-27T05:28:37.987Z,96016.39
2023-02-27T05:31:11.143Z,96018.27
2023-02-27T05:34:07.753Z,96015.55
2023-02-27T05:36:46.015Z,96003.86
2023-02-27T05:39:16.066Z,96018.02
2023-02-27T05:41:50.858Z,96011.77
2023-02-27T05:44:23.418Z,96012.33
2023-02-27T05:46:55.684Z,95989.48
2023-02-27T05:49:37.527Z,95990.84
2023-02-27T05:52:08.810Z,96002.28
2023-02-27T05:54:57.369Z,96015.08
2023-02-27T05:57:30.036Z,96007.99
2023-02-27T06:00:05.382Z,96019.43
2023-02-27T06:02:39.237Z,96042.30
2023-02-27T06:05:10.811Z,96036.30
2023-02-27T06:07:41.321Z,96039.58
2023-02-27T06:10:17.577Z,96040.94
2023-02-27T06:12:47.777Z,96065.97
2023-02-27T06:15:19.181Z,96058.34
2023-02-27T06:17:49.452Z,96066.50
2023-02-27T06:20:20.019Z,96083.37
2023-02-27T06:22:50.576Z,96077.69
2023-02-27T06:25:20.468Z,96083.37
2023-02-27T06:27:53.536Z,96080.10
2023-02-27T06:30:23.591Z,96085.54
2023-02-27T06:32:54.278Z,96063.78
2023-02-27T06:38:07.004Z,96064.33
2023-02-27T06:40:38.078Z,96055.67
2023-02-27T06:43:30.407Z,96048.31
2023-02-27T06:46:06.195Z,96057.84
2023-02-27T06:48:37.104Z,96056.20
2023-02-27T06:51:08.407Z,96064.66
2023-02-27T06:53:39.141Z,96067.37
2023-02-27T06:56:09.940Z,96045.89
2023-02-27T06:58:40.435Z,96029.32
2023-02-27T07:01:10.658Z,96032.03
2023-02-27T07:03:41.341Z,96035.59
2023-02-27T07:06:11.599Z,96041.58
2023-02-27T07:09:01.303Z,96044.02
2023-02-27T07:11:13.298Z,96045.66
2023-02-27T07:13:44.521Z,96039.13
2023-02-27T07:16:14.440Z,96050.02
2023-02-27T07:18:44.315Z,96050.02
2023-02-27T07:21:16.026Z,96039.42
2023-02-27T07:23:45.891Z,96020.96
2023-02-27T07:26:15.850Z,96010.89
2023-02-27T07:28:45.695Z,96000.84
2023-02-27T07:31:15.971Z,96000.59
2023-02-27T07:33:45.952Z,96016.09
2023-02-27T07:36:15.906Z,96019.89
2023-02-27T07:39:01.152Z,96024.28
2023-02-27T07:41:31.369Z,96034.31
2023-02-27T07:44:01.235Z,96024.28
2023-02-27T07:46:31.578Z,96024.55
2023-02-27T07:49:01.961Z,96018.02
2023-02-27T07:51:31.893Z,96040.63
2023-02-27T07:54:01.782Z,96047.98
2023-02-27T07:56:31.822Z,96056.41
2023-02-27T07:59:01.765Z,96068.91
2023-02-27T08:01:31.764Z,96074.65
2023-02-27T08:04:01.692Z,96071.93
2023-02-27T08:06:31.909Z,96067.05
2023-02-27T08:09:19.053Z,96072.50
2023-02-27T08:11:49.192Z,96058.36
2023-02-27T08:14:19.335Z,96064.87
2023-02-27T08:16:50.720Z,96065.72
2023-02-27T08:19:20.697Z,96064.08
2023-02-27T08:21:50.823Z,96058.94
2023-02-27T08:24:20.804Z,96067.36
2023-02-27T08:26:50.879Z,96064.95
2023-02-27T08:29:20.844Z,96070.66
2023-02-27T08:31:51.062Z,96083.44
2023-02-27T08:34:21.310Z,96085.36
2023-02-27T08:36:51.403Z,96093.23
2023-02-27T08:39:22.816Z,96092.98
2023-02-27T08:41:54.665Z,96097.06
2023-02-27T08:44:24.575Z,96099.23
2023-02-27T08:46:54.460Z,96103.61
2023-02-27T08:49:25.895Z,96114.73
2023-02-27T08:51:55.829Z,96108.51
2023-02-27T08:54:25.751Z,96107.97
2023-02-27T08:56:55.662Z,96106.63
2023-02-27T08:59:25.748Z,96112.61
2023-02-27T09:01:55.656Z,96113.72
2023-02-27T09:04:25.717Z,96117.00
2023-02-27T09:06:56.026Z,96108.02
2023-02-27T09:09:26.047Z,96108.02
2023-02-27T09:11:55.967Z,96089.30
2023-02-27T09:14:25.916Z,96095.28
2023-02-27T09:16:55.880Z,96104.50
2023-02-27T09:19:25.857Z,96112.41
2023-02-27T09:21:55.768Z,96104.01
2023-02-27T09:24:25.818Z,96165.41
2023-02-27T09:26:55.649Z,96225.44
2023-02-27T09:29:26.582Z,96224.36
2023-02-27T09:31:56.588Z,96202.34
2023-02-27T09:34:26.601Z,96225.44
2023-02-27T09:36:56.507Z,96226.28
2023-02-27T09:39:26.448Z,96211.34
2023-02-27T09:42:07.274Z,96210.80
2023-02-27T09:44:46.729Z,96216.79
2023-02-27T09:47:12.629Z,96220.32
2023-02-27T09:49:45.205Z,96246.13
2023-02-27T09:52:15.223Z,96256.19
2023-02-27T09:54:45.147Z,96257.28
2023-02-27T09:57:34.028Z,96251.27
2023-02-27T10:00:06.122Z,96258.06
2023-02-27T10:02:50.842Z,96255.91
2023-02-27T10:05:49.235Z,96256.42
2023-02-27T10:08:26.476Z,96270.30
2023-02-27T10:11:04.778Z,96279.25
2023-02-27T10:13:54.998Z,96258.63
2023-02-27T10:16:25.457Z,96257.27
2023-02-27T10:18:58.964Z,96271.11
2023-02-27T10:21:42.941Z,96283.88
2023-02-27T10:24:33.256Z,96287.70
2023-02-27T10:27:05.813Z,96276.83
2023-02-27T10:29:43.614Z,96283.07
2023-02-27T10:32:16.291Z,96281.72
2023-02-27T10:34:47.364Z,96284.43
2023-02-27T10:37:17.588Z,96282.52
2023-02-27T10:39:52.665Z,96287.70
2023-02-27T10:42:22.537Z,96289.05
2023-02-27T10:44:53.859Z,96290.41
2023-02-27T10:47:27.057Z,96306.96
2023-02-27T10:49:59.530Z,96302.38
2023-02-27T10:52:29.524Z,96324.61
2023-02-27T10:54:59.292Z,96321.89
2023-02-27T10:57:34.948Z,96327.62
2023-02-27T11:00:07.468Z,96318.92
2023-02-27T11:02:44.772Z,96320.02
2023-02-27T11:05:23.158Z,96329.23
2023-02-27T11:07:53.082Z,96334.40
2023-02-27T11:10:30.315Z,96350.14
2023-02-27T11:13:08.395Z,96344.45
2023-02-27T11:15:39.801Z,96353.14
2023-02-27T11:18:24.701Z,96356.66
2023-02-27T11:20:54.979Z,96351.23
2023-02-27T11:23:26.530Z,96350.69
2023-02-27T11:25:59.273Z,96357.73
2023-02-27T11:28:31.075Z,96350.43
2023-02-27T11:31:08.299Z,96360.45
2023-02-27T11:33:40.573Z,96361.55
2023-02-27T11:36:11.843Z,96356.67
2023-02-27T11:38:42.235Z,96364.27
2023-02-27T11:41:12.546Z,96361.81
2023-02-27T11:43:45.105Z,96363.46
2023-02-27T11:46:37.124Z,96371.87
2023-02-27T11:48:50.660Z,96380.02
2023-02-27T11:51:21.187Z,96384.64
2023-02-27T11:53:56.699Z,96392.23
2023-02-27T11:56:29.432Z,96395.75
2023-02-27T11:59:02.065Z,96411.23
2023-02-27T12:01:43.812Z,96419.38
2023-02-27T12:04:31.845Z,96423.45
2023-02-27T12:07:10.257Z,96427.26
2023-02-27T12:09:46.634Z,96455.23
2023-02-27T12:12:19.576Z,96465.28
2023-02-27T12:15:18.767Z,96469.36
2023-02-27T12:18:09.287Z,96483.47
2023-02-27T12:21:03.837Z,96489.20
2023-02-27T12:23:42.397Z,96500.33
2023-02-27T12:26:30.229Z,96520.97
2023-02-27T12:29:23.121Z,96528.58
2023-02-27T12:32:03.751Z,96537.84
2023-02-27T12:34:42.473Z,96539.77
2023-02-27T12:37:16.102Z,96537.91
2023-02-27T12:39:46.377Z,96542.52
2023-02-27T12:42:25.714Z,96538.46
2023-02-27T12:45:10.108Z,96542.00
2023-02-27T12:48:04.838Z,96538.48
2023-02-27T12:50:46.515Z,96545.55
2023-02-27T12:53:33.826Z,96544.20
2023-02-27T12:56:23.906Z,96552.62
2023-02-27T12:58:59.140Z,96552.92
2023-02-27T13:01:32.154Z,96557.27
2023-02-27T13:04:21.497Z,96565.42
2023-02-27T13:07:00.473Z,96559.70
2023-02-27T13:09:35.668Z,96562.72
2023-02-27T13:12:11.183Z,96565.95
2023-02-27T13:14:49.471Z,96570.84
2023-02-27T13:17:27.675Z,96576.58
2023-02-27T13:20:02.888Z,96579.59
2023-02-27T13:22:41.489Z,96592.38
2023-02-27T13:25:16.737Z,96606.53
2023-02-27T13:27:54.236Z,96615.51
2023-02-27T13:30:26.807Z,96626.10
2023-02-27T13:32:59.728Z,96634.27
2023-02-27T13:35:47.314Z,96636.44
2023-02-27T13:38:37.812Z,96647.33
2023-02-27T13:41:29.026Z,96662.84
2023-02-27T13:43:59.477Z,96673.47
2023-02-27T13:46:30.982Z,96684.62
2023-02-27T13:49:14.671Z,96688.41
2023-02-27T13:51:43.792Z,96685.17
2023-02-27T13:54:19.230Z,96677.82
2023-02-27T13:57:00.797Z,96684.34
2023-02-27T13:59:40.890Z,96691.69
2023-02-27T14:02:20.047Z,96694.16
2023-02-27T14:04:52.447Z,96702.58
2023-02-27T14:07:30.209Z,96701.22
2023-02-27T14:10:05.710Z,96704.20
2023-02-27T14:12:45.487Z,96706.11
2023-02-27T14:15:27.214Z,96711.01
2023-02-27T14:18:11.449Z,96715.64
2023-02-27T14:20:31.965Z,96738.23
2023-02-27T14:23:19.736Z,96743.97
2023-02-27T14:25:58.197Z,96755.93
2023-02-27T14:28:45.803Z,96769.54
2023-02-27T14:31:30.774Z,96765.45
2023-02-27T14:34:02.723Z,96782.08
2023-02-27T14:36:33.795Z,96780.72
2023-02-27T14:39:03.795Z,96789.14
2023-02-27T14:41:49.644Z,96785.88
2023-02-27T14:44:23.904Z,96791.05
2023-02-27T14:46:55.524Z,96783.96
2023-02-27T14:49:33.456Z,96783.44
2023-02-27T14:52:25.306Z,96792.16
2023-02-27T14:54:55.344Z,96791.86
2023-02-27T14:57:32.671Z,96783.70
2023-02-27T15:00:02.584Z,96779.61
2023-02-27T15:02:34.140Z,96781.53
2023-02-27T15:05:08.222Z,96793.48
2023-02-27T15:07:38.339Z,96790.50
2023-02-27T15:10:09.468Z,96792.41
2023-02-27T15:12:42.455Z,96795.39
2023-02-27T15:15:14.545Z,96803.04
2023-02-27T15:18:09.771Z,96803.85
2023-02-27T15:20:40.718Z,96800.02
2023-02-27T15:23:27.792Z,96805.20
2023-02-27T15:26:01.199Z,96810.91
2023-02-27T15:28:34.076Z,96820.98
2023-02-27T15:31:04.062Z,96816.64
2023-02-27T15:33:34.867Z,96818.27
2023-02-27T15:36:05.016Z,96819.62
2023-02-27T15:38:36.058Z,96816.36
2023-02-27T15:41:06.041Z,96814.99
2023-02-27T15:43:38.269Z,96828.89
2023-02-27T15:46:08.617Z,96826.98
2023-02-27T15:48:39.514Z,96830.25
2023-02-27T15:51:10.479Z,96832.42
2023-02-27T15:53:42.821Z,96831.61
2023-02-27T15:56:13.644Z,96835.14
2023-02-27T15:58:51.408Z,96842.50
2023-02-27T16:01:23.293Z,96859.08
2023-02-27T16:03:55.413Z,96859.90
2023-02-27T16:06:28.451Z,96864.53
2023-02-27T16:09:03.504Z,96860.19
2023-02-27T16:11:34.850Z,96864.27
2023-02-27T16:14:04.992Z,96863.42
2023-02-27T16:16:38.229Z,96878.69
2023-02-27T16:19:19.854Z,96882.48
2023-02-27T16:22:18.222Z,96892.29
2023-02-27T16:24:48.161Z,96903.73
2023-02-27T16:27:30.648Z,96911.60
2023-02-27T16:30:06.525Z,96914.61
2023-02-27T16:32:42.273Z,96915.42
2023-02-27T16:35:20.969Z,96911.08
2023-02-27T16:37:50.983Z,96911.58
2023-02-27T16:40:26.349Z,96926.86
2023-02-27T16:43:02.365Z,96926.56
2023-02-27T16:45:32.646Z,96925.75
2023-02-27T16:48:02.749Z,96935.28
2023-02-27T16:50:35.071Z,96930.38
2023-02-27T16:53:04.960Z,96937.73
2023-02-27T16:55:34.956Z,96936.37
2023-02-27T16:58:04.838Z,96942.88
2023-02-27T17:00:37.755Z,96943.18
2023-02-27T17:03:08.093Z,96945.90
2023-02-27T17:05:38.778Z,96943.98
2023-02-27T17:08:08.858Z,96947.52
2023-02-27T17:10:39.875Z,96958.41
2023-02-27T17:13:09.837Z,96951.05
2023-02-27T17:15:42.494Z,96946.70
2023-02-27T17:18:13.069Z,96953.50
2023-02-27T17:20:43.059Z,96953.50
2023-02-27T17:23:14.665Z,96960.56
2023-02-27T17:25:44.516Z,96971.74
2023-02-27T17:28:14.498Z,96963.03
2023-02-27T17:30:44.612Z,96961.41
2023-02-27T17:33:14.581Z,96971.74
2023-02-27T17:35:44.563Z,96971.18
2023-02-27T17:38:15.423Z,96980.16
2023-02-27T17:40:45.357Z,96979.08
2023-02-27T17:43:16.507Z,96981.26
2023-02-27T17:45:46.564Z,96981.26
2023-02-27T17:48:16.643Z,96976.06
2023-02-27T17:50:46.523Z,96976.89
2023-02-27T17:53:16.635Z,96978.25
2023-02-27T17:58:46.941Z,96981.26
2023-02-27T18:01:20.396Z,96981.26
2023-02-27T18:03:53.330Z,96986.16
2023-02-27T18:06:23.162Z,96986.70
2023-02-27T18:08:53.052Z,96991.59
2023-02-27T18:11:24.536Z,96996.21
2023-02-27T18:16:58.379Z,96994.30
2023-02-27T18:19:28.822Z,96997.31
2023-02-27T18:21:59.708Z,97001.92
2023-02-27T18:24:29.600Z,96994.03
2023-02-27T18:26:59.659Z,96987.23
2023-02-27T18:29:29.534Z,96983.41
2023-02-27T18:31:59.564Z,96987.25
2023-02-27T18:34:29.517Z,96982.61
2023-02-27T18:36:59.404Z,96980.44
2023-02-27T18:39:29.482Z,96973.09
2023-02-27T18:42:00.585Z,96980.98
2023-02-27T18:44:30.455Z,96972.83
2023-02-27T18:47:00.426Z,96972.83
2023-02-27T18:49:30.261Z,96957.31
2023-02-27T18:52:03.204Z,96953.77
2023-02-27T18:54:33.046Z,96951.31
2023-02-27T18:57:02.989Z,96950.22
2023-02-27T18:59:32.824Z,96949.67
2023-02-27T19:02:02.880Z,96954.59
2023-02-27T19:04:34.501Z,96950.52
2023-02-27T19:07:04.358Z,96935.00
2023-02-27T19:09:34.287Z,96929.27
2023-02-27T19:12:06.654Z,96927.38
2023-02-27T19:14:36.669Z,96928.20
2023-02-27T19:17:08.018Z,96932.30
2023-02-27T19:19:40.604Z,96938.28
2023-02-27T19:22:11.362Z,96922.47
2023-02-27T19:24:42.348Z,96920.86
2023-02-27T19:27:12.356Z,96914.30
2023-02-27T19:29:42.528Z,96909.97
2023-02-27T19:32:15.005Z,96902.90
2023-02-27T19:34:45.031Z,96909.42
2023-02-27T19:37:16.378Z,96908.88
2023-02-27T19:39:47.141Z,96903.16
2023-02-27T19:42:17.255Z,96906.16
2023-02-27T19:44:47.206Z,96900.19
2023-02-27T19:47:17.478Z,96890.66
2023-02-27T19:49:47.909Z,96883.56
2023-02-27T19:52:17.895Z,96883.31
2023-02-27T19:54:47.856Z,96888.47
2023-02-27T19:57:20.534Z,96890.64
2023-02-27T19:59:50.521Z,96883.84
2023-02-27T20:02:20.365Z,96884.94
2023-02-27T20:04:50.260Z,96884.94
2023-02-27T20:07:20.166Z,96895.28
2023-02-27T20:09:50.048Z,96897.45
2023-02-27T20:12:22.850Z,96897.45
2023-02-27T20:14:52.781Z,96891.76
2023-02-27T20:17:22.625Z,96889.03
2023-02-27T20:19:52.990Z,96891.21
2023-02-27T20:22:23.218Z,96887.12
2023-02-27T20:24:53.079Z,96893.94
2023-02-27T20:27:22.942Z,96884.96
2023-02-27T20:30:00.423Z,96881.98
2023-02-27T20:32:30.344Z,96883.34
2023-02-27T20:35:00.204Z,96883.86
2023-02-27T20:37:32.851Z,96880.33
2023-02-27T20:40:02.907Z,96880.33
2023-02-27T20:42:32.944Z,96881.98
2023-02-27T20:45:02.866Z,96869.72
2023-02-27T20:47:32.722Z,96878.17
2023-02-27T20:50:04.887Z,96886.90
2023-02-27T20:52:34.712Z,96875.16
2023-02-27T20:55:04.799Z,96880.36
2023-02-27T20:57:35.130Z,96883.34
2023-02-27T21:00:05.579Z,96879.80
2023-02-27T21:02:37.652Z,96872.74
2023-02-27T21:05:08.061Z,96875.73
2023-02-27T21:07:37.982Z,96870.30
2023-02-27T21:10:08.441Z,96869.47
2023-02-27T21:12:38.380Z,96868.37
2023-02-27T21:15:08.994Z,96858.59
2023-02-27T21:17:39.440Z,96860.77
2023-02-27T21:20:10.569Z,96860.77
2023-02-27T21:22:43.065Z,96863.23
2023-02-27T21:25:13.738Z,96863.23
2023-02-27T21:27:43.790Z,96851.24
2023-02-27T21:30:14.299Z,96866.77
2023-02-27T21:32:44.293Z,96858.31
2023-02-27T21:35:14.273Z,96856.14
2023-02-27T21:37:45.750Z,96855.05
2023-02-27T21:40:17.475Z,96846.88
2023-02-27T21:42:47.826Z,96852.62
2023-02-27T21:45:17.934Z,96862.16
2023-02-27T21:47:48.026Z,96858.08
2023-02-27T21:50:18.898Z,96859.15
2023-02-27T21:52:48.715Z,96865.99
2023-02-27T21:55:18.706Z,96872.25
2023-02-27T21:57:48.517Z,96871.19
2023-02-27T22:00:18.666Z,96871.45
2023-02-27T22:02:49.590Z,96878.00
2023-02-27T22:05:20.318Z,96879.08
2023-02-27T22:07:50.039Z,96876.36
2023-02-27T22:10:19.982Z,96873.89
2023-02-27T22:12:49.826Z,96878.53
2023-02-27T22:15:19.796Z,96883.44
2023-02-27T22:17:51.223Z,96891.61
2023-02-27T22:20:21.216Z,96889.44
2023-02-27T22:22:51.163Z,96890.55
2023-02-27T22:25:21.037Z,96891.91
2023-02-27T22:27:50.966Z,96891.62
2023-02-27T22:30:20.992Z,96891.07
2023-02-27T22:32:51.070Z,96888.90
2023-02-27T22:35:20.983Z,96873.91
2023-02-27T22:37:51.159Z,96871.45
2023-02-27T22:40:21.165Z,96860.28
2023-02-27T22:42:51.007Z,96864.08
2023-02-27T22:45:21.161Z,96861.09
2023-02-27T22:47:51.168Z,96864.08
2023-02-27T22:50:22.385Z,96865.19
2023-02-27T22:52:52.210Z,96857.82
2023-02-27T22:55:22.045Z,96866.26
2023-02-27T22:57:54.908Z,96863.02
2023-02-27T23:00:24.870Z,96863.02
2023-02-27T23:02:54.712Z,96857.81
2023-02-27T23:05:24.605Z,96854.83
2023-02-27T23:07:54.550Z,96855.64
2023-02-27T23:10:24.385Z,96860.80
2023-02-27T23:12:54.344Z,96861.35
2023-02-27T23:15:24.107Z,96852.07
2023-02-27T23:17:58.583Z,96859.98
2023-02-27T23:20:25.546Z,96859.73
2023-02-27T23:22:55.500Z,96862.97
2023-02-27T23:25:26.039Z,96866.80
2023-02-27T23:27:55.917Z,96861.05
2023-02-27T23:30:26.346Z,96860.79
2023-02-27T23:32:56.272Z,96863.78
2023-02-27T23:35:26.643Z,96866.53
2023-02-27T23:37:57.735Z,96871.72
2023-02-27T23:40:28.577Z,96878.80
2023-02-27T23:42:58.496Z,96874.70
2023-02-27T23:45:28.391Z,96870.61
2023-02-27T23:47:58.857Z,96873.34
2023-02-27T23:50:33.322Z,96872.78
2023-02-27T23:53:03.190Z,96877.69
2023-02-27T23:55:33.618Z,96878.53
2023-02-27T23:58:03.846Z,96880.70
